KOPL/OPL METAR and TAF weather

Enter ICAO airport designator
Station Type Date Time Source
KOPL METAR 2021/06/24 06:15 UTC NOAA

KOPL 240615Z AUTO 00000KT 10SM CLR 25/24 A3004 RMK AO2 T02540235


Station Type Date Time Source
KOPL Decoded METAR 2021/06/24 06:15 UTC NOAA

Station name not available
Jun 24, 2021 - 02:15 AM EDT / 2021.06.24 0615 UTC
Wind: Calm:0
Visibility: 10 mile(s):0
Sky conditions: clear
Temperature: 77.7 F (25.4 C)
Dew Point: 74.3 F (23.5 C)
Relative Humidity: 89%
Pressure (altimeter): 30.04 in. Hg (1017 hPa)
ob: KOPL 240615Z AUTO 00000KT 10SM CLR 25/24 A3004 RMK AO2 T02540235
cycle: 6

Station Type Date Time Source
KOPL TAF UTC NOAA

Error!

Example: see airport list